Terminal Aerodrome Forecast
Issued by NWS

Home | Current Version | Previous Version | Text Only | Print | Product List | Glossary Off
Versions: 1 2 3 4 5 6 7 8 9 10 11 12 13 14 15

392
FTUS43 KTOP 180520
TAFMHK
TAF
KMHK 180520Z 1806/1906 01014G28KT P6SM SCT080 WS020/29045KT
     FM180700 30016G32KT P6SM SCT070 WS020/28045KT
     FM180900 30019G33KT P6SM BKN025
     FM181500 31020G29KT P6SM SCT030
     FM190100 34011KT P6SM FEW150=

USA.gov is the U.S. government's official web portal to all federal, state and local government web resources and services.